createdAt,value
2023-08-29T00:01:14.756Z,16.03
2023-08-29T00:03:41.653Z,16.01
2023-08-29T00:06:08.311Z,15.99
2023-08-29T00:08:35.154Z,15.99
2023-08-29T00:11:10.585Z,16.00
2023-08-29T00:13:37.366Z,15.98
2023-08-29T00:16:04.466Z,15.97
2023-08-29T00:18:31.389Z,15.95
2023-08-29T00:20:58.359Z,15.97
2023-08-29T00:23:26.151Z,15.94
2023-08-29T00:25:53.096Z,15.92
2023-08-29T00:28:19.883Z,15.89
2023-08-29T00:30:47.035Z,15.88
2023-08-29T00:33:14.220Z,15.88
2023-08-29T00:35:41.742Z,15.89
2023-08-29T00:38:12.173Z,15.88
2023-08-29T00:40:39.032Z,15.89
2023-08-29T00:43:06.097Z,15.90
2023-08-29T00:45:40.908Z,15.87
2023-08-29T00:48:09.496Z,15.87
2023-08-29T00:50:37.279Z,15.87
2023-08-29T00:53:06.804Z,15.85
2023-08-29T00:55:35.478Z,15.83
2023-08-29T00:58:04.115Z,15.84
2023-08-29T01:00:32.517Z,15.84
2023-08-29T01:03:00.592Z,15.87
2023-08-29T01:05:29.790Z,15.88
2023-08-29T01:08:01.178Z,15.91
2023-08-29T01:10:38.061Z,15.92
2023-08-29T01:13:27.845Z,15.91
2023-08-29T01:15:59.718Z,15.92
2023-08-29T01:18:31.899Z,15.93
2023-08-29T01:21:11.774Z,15.92
2023-08-29T01:23:45.717Z,15.92
2023-08-29T01:26:17.613Z,15.92
2023-08-29T01:28:46.999Z,15.92
2023-08-29T01:31:14.861Z,15.90
2023-08-29T01:33:42.378Z,15.90
2023-08-29T01:36:10.005Z,15.91
2023-08-29T01:38:36.703Z,15.88
2023-08-29T01:41:03.688Z,15.87
2023-08-29T01:43:30.960Z,15.87
2023-08-29T01:45:58.096Z,15.88
2023-08-29T01:48:25.149Z,15.91
2023-08-29T01:50:52.501Z,15.92
2023-08-29T01:53:19.237Z,15.92
2023-08-29T01:55:47.933Z,15.90
2023-08-29T01:58:15.902Z,15.90
2023-08-29T02:00:43.961Z,15.90
2023-08-29T02:03:10.898Z,15.89
2023-08-29T02:05:37.658Z,15.89
2023-08-29T02:08:04.867Z,15.90
2023-08-29T02:10:32.034Z,15.90
2023-08-29T02:12:59.254Z,15.87
2023-08-29T02:15:25.924Z,15.85
2023-08-29T02:17:54.806Z,15.87
2023-08-29T02:20:21.898Z,15.84
2023-08-29T02:22:48.781Z,15.87
2023-08-29T02:25:15.579Z,15.84
2023-08-29T02:27:42.395Z,15.86
2023-08-29T02:30:09.726Z,15.85
2023-08-29T02:32:36.805Z,15.85
2023-08-29T02:35:05.325Z,15.84
2023-08-29T02:37:34.189Z,15.84
2023-08-29T02:40:00.898Z,15.83
2023-08-29T02:42:27.848Z,15.81
2023-08-29T02:44:55.176Z,15.78
2023-08-29T02:47:21.860Z,15.74
2023-08-29T02:49:48.527Z,15.74
2023-08-29T02:52:15.642Z,15.73
2023-08-29T02:54:43.231Z,15.72
2023-08-29T02:57:09.982Z,15.70
2023-08-29T02:59:36.641Z,15.69
2023-08-29T03:02:04.641Z,15.69
2023-08-29T03:04:31.595Z,15.67
2023-08-29T03:06:59.041Z,15.69
2023-08-29T03:09:25.853Z,15.72
2023-08-29T03:11:52.619Z,15.70
2023-08-29T03:14:19.301Z,15.70
2023-08-29T03:16:46.019Z,15.70
2023-08-29T03:19:12.806Z,15.68
2023-08-29T03:21:39.481Z,15.66
2023-08-29T03:24:08.503Z,15.64
2023-08-29T03:26:35.304Z,15.58
2023-08-29T03:29:02.346Z,15.54
2023-08-29T03:31:29.030Z,15.52
2023-08-29T03:33:55.873Z,15.51
2023-08-29T03:36:23.088Z,15.49
2023-08-29T03:38:50.037Z,15.48
2023-08-29T03:41:16.723Z,15.48
2023-08-29T03:43:43.506Z,15.46
2023-08-29T03:46:10.501Z,15.45
2023-08-29T03:48:38.296Z,15.45
2023-08-29T03:51:08.594Z,15.43
2023-08-29T03:53:39.366Z,15.44
2023-08-29T03:56:09.581Z,15.42
2023-08-29T03:58:36.848Z,15.41
2023-08-29T04:01:05.260Z,15.38
2023-08-29T04:03:32.779Z,15.36
2023-08-29T04:06:00.052Z,15.37
2023-08-29T04:08:26.766Z,15.35
2023-08-29T04:10:53.408Z,15.36
2023-08-29T04:13:20.474Z,15.36
2023-08-29T04:15:47.279Z,15.36
2023-08-29T04:18:14.134Z,15.36
2023-08-29T04:20:40.991Z,15.39
2023-08-29T04:23:08.587Z,15.40
2023-08-29T04:25:37.568Z,15.39
2023-08-29T04:28:05.858Z,15.41
2023-08-29T04:30:32.958Z,15.42
2023-08-29T04:33:00.861Z,15.42
2023-08-29T04:35:27.995Z,15.43
2023-08-29T04:37:55.791Z,15.43
2023-08-29T04:40:23.148Z,15.40
2023-08-29T04:42:52.736Z,15.37
2023-08-29T04:45:20.245Z,15.33
2023-08-29T04:47:47.086Z,15.32
2023-08-29T04:50:15.061Z,15.33
2023-08-29T04:52:41.862Z,15.30
2023-08-29T04:55:08.695Z,15.32
2023-08-29T04:57:35.374Z,15.29
2023-08-29T05:00:02.077Z,15.31
2023-08-29T05:02:29.101Z,15.34
2023-08-29T05:04:55.854Z,15.34
2023-08-29T05:07:22.705Z,15.32
2023-08-29T05:09:49.512Z,15.33
2023-08-29T05:12:17.664Z,15.31
2023-08-29T05:14:44.476Z,15.28
2023-08-29T05:17:11.463Z,15.28
2023-08-29T05:19:38.659Z,15.28
2023-08-29T05:22:05.770Z,15.30
2023-08-29T05:24:33.212Z,15.29
2023-08-29T05:26:59.958Z,15.29
2023-08-29T05:29:26.630Z,15.24
2023-08-29T05:31:53.294Z,15.25
2023-08-29T05:34:20.113Z,15.21
2023-08-29T05:36:50.070Z,15.20
2023-08-29T05:39:16.910Z,15.22
2023-08-29T05:41:43.597Z,15.20
2023-08-29T05:44:10.258Z,15.20
2023-08-29T05:46:37.149Z,15.25
2023-08-29T05:49:04.913Z,15.30
2023-08-29T05:51:31.825Z,15.33
2023-08-29T05:53:58.702Z,15.36
2023-08-29T05:56:25.364Z,15.38
2023-08-29T05:58:52.157Z,15.40
2023-08-29T06:01:19.214Z,15.43
2023-08-29T06:03:45.964Z,15.48
2023-08-29T06:06:12.760Z,15.50
2023-08-29T06:08:41.542Z,15.51
2023-08-29T06:11:08.393Z,15.55
2023-08-29T06:13:35.175Z,15.54
2023-08-29T06:16:01.966Z,15.58
2023-08-29T06:18:28.670Z,15.59
2023-08-29T06:20:55.451Z,15.59
2023-08-29T06:23:22.347Z,15.58
2023-08-29T06:25:50.345Z,15.58
2023-08-29T06:28:17.298Z,15.55
2023-08-29T06:30:44.275Z,15.51
2023-08-29T06:33:11.126Z,15.47
2023-08-29T06:35:42.171Z,15.47
2023-08-29T06:38:09.562Z,15.44
2023-08-29T06:40:37.239Z,15.41
2023-08-29T06:43:04.275Z,15.42
2023-08-29T06:45:31.039Z,15.41
2023-08-29T06:47:57.892Z,15.38
2023-08-29T06:50:24.880Z,15.40
2023-08-29T06:52:51.781Z,15.41
2023-08-29T06:55:18.547Z,15.42
2023-08-29T06:57:45.482Z,15.45
2023-08-29T07:00:14.350Z,15.42
2023-08-29T07:02:41.649Z,15.44
2023-08-29T07:05:08.598Z,15.47
2023-08-29T07:07:37.679Z,15.50
2023-08-29T07:10:05.549Z,15.52
2023-08-29T07:12:33.686Z,15.53
2023-08-29T07:15:02.140Z,15.51
2023-08-29T07:17:29.205Z,15.53
2023-08-29T07:19:56.709Z,15.54
2023-08-29T07:22:24.858Z,15.50
2023-08-29T07:24:53.078Z,15.45
2023-08-29T07:27:20.227Z,15.42
2023-08-29T07:29:46.936Z,15.41
2023-08-29T07:32:13.665Z,15.43
2023-08-29T07:34:41.425Z,15.44
2023-08-29T07:37:09.279Z,15.49
2023-08-29T07:39:36.276Z,15.49
2023-08-29T07:42:04.568Z,15.54
2023-08-29T07:44:31.850Z,15.54
2023-08-29T07:47:14.205Z,15.55
2023-08-29T07:49:42.501Z,15.58
2023-08-29T07:52:10.370Z,15.60
2023-08-29T07:54:37.079Z,15.60
2023-08-29T07:57:04.063Z,15.58
2023-08-29T07:59:30.751Z,15.58
2023-08-29T08:01:57.580Z,15.58
2023-08-29T08:04:24.461Z,15.59
2023-08-29T08:06:51.219Z,15.62
2023-08-29T08:09:17.994Z,15.65
2023-08-29T08:11:44.700Z,15.67
2023-08-29T08:14:12.855Z,15.66
2023-08-29T08:16:39.638Z,15.61
2023-08-29T08:19:06.687Z,15.58
2023-08-29T08:21:33.412Z,15.57
2023-08-29T08:24:00.045Z,15.60
2023-08-29T08:26:27.684Z,15.63
2023-08-29T08:28:56.175Z,15.62
2023-08-29T08:31:23.364Z,15.64
2023-08-29T08:33:51.797Z,15.64
2023-08-29T08:36:18.675Z,15.67
2023-08-29T08:38:45.357Z,15.70
2023-08-29T08:41:12.759Z,15.77
2023-08-29T08:43:42.350Z,15.84
2023-08-29T08:46:10.736Z,15.88
2023-08-29T08:48:39.414Z,15.91
2023-08-29T08:51:07.192Z,15.90
2023-08-29T08:53:34.504Z,15.89
2023-08-29T08:56:01.677Z,15.88
2023-08-29T08:58:28.587Z,15.87
2023-08-29T09:00:56.310Z,15.84
2023-08-29T09:03:23.519Z,15.82
2023-08-29T09:05:51.164Z,15.81
2023-08-29T09:08:21.575Z,15.84
2023-08-29T09:10:48.775Z,15.87
2023-08-29T09:13:19.339Z,15.88
2023-08-29T09:15:49.530Z,15.87
2023-08-29T09:18:27.746Z,15.89
2023-08-29T09:20:54.521Z,15.89
2023-08-29T09:23:23.616Z,15.85
2023-08-29T09:25:56.114Z,15.81
2023-08-29T09:28:26.433Z,15.80
2023-08-29T09:30:53.144Z,15.82
2023-08-29T09:33:23.947Z,15.82
2023-08-29T09:35:51.167Z,15.84
2023-08-29T09:38:21.744Z,15.85
2023-08-29T09:40:50.573Z,15.85
2023-08-29T09:43:18.496Z,15.85
2023-08-29T09:45:53.478Z,15.84
2023-08-29T09:48:21.123Z,15.90
2023-08-29T09:50:50.059Z,15.95
2023-08-29T09:53:21.275Z,15.95
2023-08-29T09:56:06.593Z,15.93
2023-08-29T09:58:34.049Z,15.88
2023-08-29T10:01:01.688Z,15.85
2023-08-29T10:03:30.141Z,15.82
2023-08-29T10:05:58.837Z,15.79
2023-08-29T10:08:38.112Z,15.77
2023-08-29T10:11:07.404Z,15.79
2023-08-29T10:13:38.512Z,15.80
2023-08-29T10:16:05.912Z,15.82
2023-08-29T10:18:34.776Z,15.83
2023-08-29T10:21:04.018Z,15.82
2023-08-29T10:23:32.382Z,15.79
2023-08-29T10:26:01.347Z,15.83
2023-08-29T10:28:30.230Z,15.85
2023-08-29T10:31:02.019Z,15.90
2023-08-29T10:33:29.149Z,15.95
2023-08-29T10:35:56.027Z,16.00
2023-08-29T10:38:26.229Z,16.03
2023-08-29T10:41:04.239Z,16.01
2023-08-29T10:43:31.374Z,15.99
2023-08-29T10:46:00.937Z,15.98
2023-08-29T10:48:31.376Z,15.96
2023-08-29T10:51:12.853Z,15.90
2023-08-29T10:53:48.883Z,15.87
2023-08-29T10:56:19.435Z,15.90
2023-08-29T10:58:48.930Z,15.94
2023-08-29T11:01:37.580Z,15.95
2023-08-29T11:04:17.301Z,15.96
2023-08-29T11:06:57.894Z,15.97
2023-08-29T11:09:26.307Z,16.01
2023-08-29T11:12:10.756Z,16.05
2023-08-29T11:15:08.360Z,16.06
2023-08-29T11:17:36.122Z,16.08
2023-08-29T11:20:03.541Z,16.06
2023-08-29T11:22:31.062Z,16.03
2023-08-29T11:24:59.070Z,15.98
2023-08-29T11:27:28.772Z,15.92
2023-08-29T11:30:11.191Z,15.82
2023-08-29T11:32:42.976Z,15.74
2023-08-29T11:35:12.726Z,15.71
2023-08-29T11:37:40.112Z,15.67
2023-08-29T11:40:11.400Z,15.61
2023-08-29T11:43:18.767Z,15.61
2023-08-29T11:45:46.141Z,15.57
2023-08-29T11:48:23.225Z,15.55
2023-08-29T11:50:52.701Z,15.56
2023-08-29T11:53:32.093Z,15.53
2023-08-29T11:56:00.571Z,15.52
2023-08-29T11:58:32.486Z,15.51
2023-08-29T12:01:02.196Z,15.51
2023-08-29T12:03:29.016Z,15.51
2023-08-29T12:05:58.282Z,15.48
2023-08-29T12:08:39.240Z,15.48
2023-08-29T12:11:08.094Z,15.45
2023-08-29T12:13:36.729Z,15.44
2023-08-29T12:16:05.702Z,15.49
2023-08-29T12:18:33.843Z,15.57
2023-08-29T12:21:30.299Z,15.63
2023-08-29T12:24:10.673Z,15.62
2023-08-29T12:26:37.457Z,15.61
2023-08-29T12:29:04.458Z,15.55
2023-08-29T12:31:31.328Z,15.54
2023-08-29T12:33:58.152Z,15.56
2023-08-29T12:36:24.842Z,15.60
2023-08-29T12:38:51.571Z,15.65
2023-08-29T12:41:19.008Z,15.67
2023-08-29T12:43:45.722Z,15.71
2023-08-29T12:46:12.405Z,15.77
2023-08-29T12:48:39.161Z,15.79
2023-08-29T12:51:06.568Z,15.82
2023-08-29T12:53:33.426Z,15.82
2023-08-29T12:56:00.583Z,15.79
2023-08-29T12:58:27.243Z,15.74
2023-08-29T13:00:53.938Z,15.76
2023-08-29T13:03:22.136Z,15.80
2023-08-29T13:05:48.995Z,15.82
2023-08-29T13:08:16.858Z,15.87
2023-08-29T13:10:44.165Z,15.87
2023-08-29T13:13:10.915Z,15.84
2023-08-29T13:15:50.576Z,15.81
2023-08-29T13:18:18.944Z,15.78
2023-08-29T13:20:46.051Z,15.78
2023-08-29T13:23:12.749Z,15.78
2023-08-29T13:25:39.519Z,15.77
2023-08-29T13:28:06.650Z,15.74
2023-08-29T13:30:34.454Z,15.76
2023-08-29T13:33:01.175Z,15.76
2023-08-29T13:35:27.825Z,15.78
2023-08-29T13:37:54.532Z,15.79
2023-08-29T13:40:21.964Z,15.81
2023-08-29T13:42:50.479Z,15.80
2023-08-29T13:45:17.705Z,15.84
2023-08-29T13:47:46.161Z,15.86
2023-08-29T13:50:13.182Z,15.92
2023-08-29T13:52:39.830Z,15.93
2023-08-29T13:55:06.832Z,15.91
2023-08-29T13:57:33.558Z,15.92
2023-08-29T14:00:00.295Z,15.92
2023-08-29T14:02:27.560Z,15.94
2023-08-29T14:04:54.632Z,15.99
2023-08-29T14:07:21.896Z,16.01
2023-08-29T14:09:48.776Z,16.02
2023-08-29T14:12:15.826Z,16.02
2023-08-29T14:14:43.201Z,16.03
2023-08-29T14:17:10.112Z,16.04
2023-08-29T14:19:36.762Z,16.09
2023-08-29T14:22:05.380Z,16.14
2023-08-29T14:24:32.553Z,16.21
2023-08-29T14:26:59.520Z,16.22
2023-08-29T14:29:30.330Z,16.20
2023-08-29T14:31:57.906Z,16.15
2023-08-29T14:34:24.878Z,16.13
2023-08-29T14:36:51.530Z,16.16
2023-08-29T14:39:18.427Z,16.16
2023-08-29T14:41:45.421Z,16.16
2023-08-29T14:44:12.354Z,16.20
2023-08-29T14:46:39.348Z,16.22
2023-08-29T14:49:06.308Z,16.24
2023-08-29T14:51:33.409Z,16.27
2023-08-29T14:54:04.441Z,16.29
2023-08-29T14:56:31.513Z,16.32
2023-08-29T14:59:00.799Z,16.35
2023-08-29T15:01:28.132Z,16.35
2023-08-29T15:03:55.390Z,16.33
2023-08-29T15:06:22.257Z,16.28
2023-08-29T15:08:49.442Z,16.29
2023-08-29T15:11:16.531Z,16.35
2023-08-29T15:13:43.393Z,16.35
2023-08-29T15:16:10.168Z,16.36
2023-08-29T15:18:37.165Z,16.39
2023-08-29T15:21:04.314Z,16.44
2023-08-29T15:23:31.212Z,16.43
2023-08-29T15:25:58.724Z,16.43
2023-08-29T15:28:32.365Z,16.46
2023-08-29T15:31:02.050Z,16.47
2023-08-29T15:33:29.709Z,16.43
2023-08-29T15:35:58.239Z,16.46
2023-08-29T15:38:25.809Z,16.47
2023-08-29T15:40:56.353Z,16.49
2023-08-29T15:43:26.188Z,16.53
2023-08-29T15:45:53.489Z,16.55
2023-08-29T15:48:20.329Z,16.57
2023-08-29T15:50:47.249Z,16.58
2023-08-29T15:53:14.678Z,16.60
2023-08-29T15:55:42.699Z,16.62
2023-08-29T15:58:10.083Z,16.62
2023-08-29T16:00:38.207Z,16.63
2023-08-29T16:03:07.745Z,16.65
2023-08-29T16:05:34.797Z,16.67
2023-08-29T16:08:02.277Z,16.65
2023-08-29T16:10:28.979Z,16.62
2023-08-29T16:12:56.094Z,16.56
2023-08-29T16:15:22.784Z,16.57
2023-08-29T16:17:49.816Z,16.57
2023-08-29T16:20:16.765Z,16.55
2023-08-29T16:22:43.470Z,16.50
2023-08-29T16:25:10.617Z,16.45
2023-08-29T16:27:37.525Z,16.42
2023-08-29T16:30:06.350Z,16.40
2023-08-29T16:32:33.391Z,16.40
2023-08-29T16:35:00.569Z,16.43
2023-08-29T16:37:27.381Z,16.46
2023-08-29T16:39:54.292Z,16.49
2023-08-29T16:42:21.142Z,16.48
2023-08-29T16:44:48.257Z,16.52
2023-08-29T16:47:15.145Z,16.55
2023-08-29T16:49:41.989Z,16.57
2023-08-29T16:52:09.864Z,16.56
2023-08-29T16:54:36.660Z,16.54
2023-08-29T16:57:04.652Z,16.56
2023-08-29T16:59:33.304Z,16.59
2023-08-29T17:02:00.285Z,16.58
2023-08-29T17:04:29.228Z,16.56
2023-08-29T17:06:56.151Z,16.53
2023-08-29T17:09:22.910Z,16.51
2023-08-29T17:11:49.727Z,16.51
2023-08-29T17:14:16.686Z,16.49
2023-08-29T17:16:43.463Z,16.49
2023-08-29T17:19:12.884Z,16.48
2023-08-29T17:21:41.260Z,16.45
2023-08-29T17:24:08.276Z,16.49
2023-08-29T17:26:35.727Z,16.49
2023-08-29T17:29:02.564Z,16.51
2023-08-29T17:31:29.364Z,16.50
2023-08-29T17:33:56.223Z,16.49
2023-08-29T17:36:23.071Z,16.46
2023-08-29T17:38:49.886Z,16.47
2023-08-29T17:41:16.678Z,16.49
2023-08-29T17:43:43.443Z,16.50
2023-08-29T17:46:10.222Z,16.54
2023-08-29T17:48:36.986Z,16.54
2023-08-29T17:51:04.224Z,16.55
2023-08-29T17:53:31.360Z,16.54
2023-08-29T17:55:58.391Z,16.55
2023-08-29T17:58:25.815Z,16.55
2023-08-29T18:00:53.661Z,16.55
2023-08-29T18:03:20.797Z,16.52
2023-08-29T18:05:49.560Z,16.49
2023-08-29T18:08:17.754Z,16.47
2023-08-29T18:10:45.301Z,16.44
2023-08-29T18:13:13.426Z,16.40
2023-08-29T18:15:41.182Z,16.37
2023-08-29T18:18:29.339Z,16.35
2023-08-29T18:20:58.425Z,16.35
2023-08-29T18:23:26.771Z,16.35
2023-08-29T18:25:55.451Z,16.33
2023-08-29T18:28:22.246Z,16.33
2023-08-29T18:30:49.024Z,16.33
2023-08-29T18:33:15.659Z,16.32
2023-08-29T18:35:44.527Z,16.31
2023-08-29T18:38:12.568Z,16.32
2023-08-29T18:40:40.132Z,16.31
2023-08-29T18:43:06.940Z,16.33
2023-08-29T18:45:33.715Z,16.33
2023-08-29T18:48:00.479Z,16.34
2023-08-29T18:50:28.003Z,16.32
2023-08-29T18:52:55.264Z,16.32
2023-08-29T18:55:21.882Z,16.28
2023-08-29T18:57:48.813Z,16.28
2023-08-29T19:00:16.329Z,16.26
2023-08-29T19:02:44.113Z,16.27
2023-08-29T19:05:12.063Z,16.25
2023-08-29T19:07:39.499Z,16.24
2023-08-29T19:10:07.283Z,16.27
2023-08-29T19:12:34.418Z,16.28
2023-08-29T19:15:06.804Z,16.29
2023-08-29T19:17:35.172Z,16.32
2023-08-29T19:20:03.386Z,16.33
2023-08-29T19:22:30.408Z,16.34
2023-08-29T19:24:57.352Z,16.33
2023-08-29T19:29:53.818Z,16.33
2023-08-29T19:32:20.600Z,16.32
2023-08-29T19:34:47.526Z,16.35
2023-08-29T19:37:14.331Z,16.36
2023-08-29T19:39:41.117Z,16.37
2023-08-29T19:42:07.858Z,16.38
2023-08-29T19:44:34.675Z,16.38
2023-08-29T19:47:04.046Z,16.38
2023-08-29T19:49:38.537Z,16.39
2023-08-29T19:52:06.794Z,16.38
2023-08-29T19:54:33.740Z,16.38
2023-08-29T19:57:00.572Z,16.38
2023-08-29T19:59:27.358Z,16.38
2023-08-29T20:01:54.356Z,16.38
2023-08-29T20:04:21.119Z,16.39
2023-08-29T20:06:47.998Z,16.38
2023-08-29T20:09:14.803Z,16.37
2023-08-29T20:11:41.583Z,16.36
2023-08-29T20:14:08.413Z,16.37
2023-08-29T20:16:35.243Z,16.37
2023-08-29T20:19:02.178Z,16.37
2023-08-29T20:21:29.223Z,16.36
2023-08-29T20:24:02.530Z,16.36
2023-08-29T20:26:31.693Z,16.34
2023-08-29T20:29:00.911Z,16.33
2023-08-29T20:31:28.354Z,16.34
2023-08-29T20:33:55.319Z,16.33
2023-08-29T20:36:22.376Z,16.34
2023-08-29T20:38:49.284Z,16.34
2023-08-29T20:41:16.003Z,16.35
2023-08-29T20:43:43.209Z,16.34
2023-08-29T20:46:10.008Z,16.34
2023-08-29T20:48:36.871Z,16.34
2023-08-29T20:51:04.267Z,16.33
2023-08-29T20:53:35.554Z,16.33
2023-08-29T20:56:03.354Z,16.31
2023-08-29T20:58:30.452Z,16.30
2023-08-29T21:00:59.238Z,16.30
2023-08-29T21:03:31.860Z,16.29
2023-08-29T21:06:00.616Z,16.28
2023-08-29T21:08:27.855Z,16.26
2023-08-29T21:10:55.705Z,16.27
2023-08-29T21:13:23.661Z,16.27
2023-08-29T21:15:51.118Z,16.28
2023-08-29T21:18:19.782Z,16.28
2023-08-29T21:20:54.764Z,16.27
2023-08-29T21:23:23.197Z,16.27
2023-08-29T21:25:50.946Z,16.27
2023-08-29T21:28:20.849Z,16.26
2023-08-29T21:30:47.802Z,16.25
2023-08-29T21:33:15.145Z,16.26
2023-08-29T21:35:44.239Z,16.25
2023-08-29T21:38:12.272Z,16.26
2023-08-29T21:40:41.371Z,16.26
2023-08-29T21:43:12.478Z,16.24
2023-08-29T21:45:42.363Z,16.25
2023-08-29T21:48:11.134Z,16.25
2023-08-29T21:50:42.960Z,16.26
2023-08-29T21:53:11.513Z,16.25
2023-08-29T21:55:40.428Z,16.24
2023-08-29T21:58:11.822Z,16.25
2023-08-29T22:00:39.019Z,16.23
2023-08-29T22:03:07.118Z,16.22
2023-08-29T22:05:34.289Z,16.20
2023-08-29T22:08:01.199Z,16.22
2023-08-29T22:10:28.047Z,16.20
2023-08-29T22:12:55.082Z,16.17
2023-08-29T22:15:21.782Z,16.18
2023-08-29T22:17:49.146Z,16.15
2023-08-29T22:20:16.554Z,16.11
2023-08-29T22:22:43.292Z,16.09
2023-08-29T22:25:10.881Z,16.08
2023-08-29T22:27:38.086Z,16.09
2023-08-29T22:30:06.785Z,16.12
2023-08-29T22:32:33.935Z,16.13
2023-08-29T22:35:01.712Z,16.15
2023-08-29T22:37:28.870Z,16.16
2023-08-29T22:39:55.800Z,16.17
2023-08-29T22:42:23.176Z,16.16
2023-08-29T22:44:50.149Z,16.16
2023-08-29T22:47:16.998Z,16.18
2023-08-29T22:49:44.607Z,16.18
2023-08-29T22:52:11.516Z,16.15
2023-08-29T22:54:39.061Z,16.16
2023-08-29T22:57:06.578Z,16.17
2023-08-29T22:59:33.503Z,16.15
2023-08-29T23:02:00.921Z,16.13
2023-08-29T23:04:30.779Z,16.15
2023-08-29T23:07:05.552Z,16.11
2023-08-29T23:09:33.273Z,16.13
2023-08-29T23:12:01.954Z,16.12
2023-08-29T23:14:29.904Z,16.12
2023-08-29T23:16:57.911Z,16.10
2023-08-29T23:19:25.100Z,16.09
2023-08-29T23:21:55.727Z,16.11
2023-08-29T23:24:22.594Z,16.13
2023-08-29T23:26:49.555Z,16.13
2023-08-29T23:29:17.294Z,16.13
2023-08-29T23:31:44.530Z,16.15
2023-08-29T23:34:11.270Z,16.15
2023-08-29T23:36:38.798Z,16.15
2023-08-29T23:39:08.230Z,16.12
2023-08-29T23:41:35.468Z,16.10
2023-08-29T23:44:02.395Z,16.11
2023-08-29T23:46:29.625Z,16.10
2023-08-29T23:48:56.497Z,16.08
2023-08-29T23:51:23.589Z,16.07
2023-08-29T23:53:51.907Z,16.06
2023-08-29T23:56:18.903Z,16.06
2023-08-29T23:58:46.555Z,16.07
